Time;durP1;ratioP1;P1;durP2;ratioP2;P2;SDS_P1;SDS_P2;PMS_P1;PMS_P2;Temp;Humidity;BMP_temperature;BMP_pressure;BME280_temperature;BME280_humidity;BME280_pressure;Samples;Min_cycle;Max_cycle;Signal;HPM_P1;HPM_P2
2023/05/13 00:00:04;;;;;;;7.03;4.30;;;;;;;-141.97;49.65;47595.97;4979352;28;20176;-81
2023/05/13 00:02:30;;;;;;;6.80;4.60;;;;;;;-141.97;49.57;47594.03;4972623;28;20164;-81
2023/05/13 00:04:55;;;;;;;7.00;4.50;;;;;;;-141.97;50.03;47638.25;4972573;28;20255;-81
2023/05/13 00:07:21;;;;;;;7.47;4.57;;;;;;;-141.97;49.79;47605.56;4972742;28;20222;-80
2023/05/13 00:09:46;;;;;;;6.13;4.60;;;;;;;-141.97;49.97;47659.38;4972367;28;20171;-81
2023/05/13 00:12:11;;;;;;;7.63;4.40;;;;;;;-141.97;50.12;47622.88;4973506;28;20258;-81
2023/05/13 00:14:37;;;;;;;6.30;4.33;;;;;;;-141.97;50.24;47647.84;4971785;28;20204;-82
2023/05/13 00:17:03;;;;;;;8.07;4.83;;;;;;;-141.97;50.52;47619.03;4973075;28;20247;-80
2023/05/13 00:19:29;;;;;;;8.80;4.60;;;;;;;-141.97;50.55;47653.63;4972617;28;20207;-82
2023/05/13 00:21:55;;;;;;;6.67;4.37;;;;;;;-141.97;50.58;47619.03;4972981;28;20203;-81
2023/05/13 00:24:20;;;;;;;8.23;4.30;;;;;;;-141.97;50.98;47636.31;4962347;28;20219;-82
2023/05/13 00:26:46;;;;;;;8.77;4.50;;;;;;;-141.97;51.17;47630.56;4972642;28;20191;-82
2023/05/13 00:29:11;;;;;;;7.47;4.53;;;;;;;-141.97;51.12;47599.81;4973330;28;20195;-81
2023/05/13 00:31:36;;;;;;;7.50;4.30;;;;;;;-141.97;51.07;47630.56;4972816;28;20663;-82
2023/05/13 00:34:03;;;;;;;7.43;4.43;;;;;;;-141.97;51.28;47624.78;4972391;28;20199;-82
2023/05/13 00:36:28;;;;;;;7.53;4.37;;;;;;;-141.97;52.11;47649.78;4980153;28;20180;-82
2023/05/13 00:38:54;;;;;;;8.10;4.47;;;;;;;-141.97;51.98;47755.50;4972615;28;20168;-81
2023/05/13 00:41:21;;;;;;;6.70;4.50;;;;;;;-141.97;52.11;47617.09;4972441;28;20176;-82
2023/05/13 00:43:46;;;;;;;8.30;4.37;;;;;;;-141.97;52.14;47682.47;4972963;28;20168;-81
2023/05/13 00:46:13;;;;;;;6.87;3.77;;;;;;;-141.97;52.60;47615.19;4972062;28;20179;-82
2023/05/13 00:48:38;;;;;;;7.83;4.30;;;;;;;-141.97;52.77;47611.34;4972723;28;20218;-82
2023/05/13 00:51:04;;;;;;;7.10;4.60;;;;;;;-141.97;52.68;47572.91;4970426;28;20258;-82
2023/05/13 00:53:32;;;;;;;10.13;4.57;;;;;;;-141.97;52.71;47636.31;4972679;28;20282;-82
2023/05/13 00:55:57;;;;;;;9.87;4.40;;;;;;;-141.97;53.39;47665.16;4973646;28;20604;-82
2023/05/13 00:58:23;;;;;;;8.07;4.60;;;;;;;-141.97;53.91;47676.69;4973546;28;20307;-82
2023/05/13 01:01:11;;;;;;;9.83;4.90;;;;;;;-141.97;54.44;47586.34;4973320;28;20960;-81
2023/05/13 01:03:59;;;;;;;8.40;4.60;;;;;;;-141.97;54.20;47615.19;4972714;28;20174;-82
2023/05/13 01:06:58;;;;;;;7.93;4.37;;;;;;;-141.97;54.69;47626.72;4935201;29;20196;-82
2023/05/13 01:09:43;;;;;;;8.30;4.77;;;;;;;-141.97;54.75;47567.13;4951552;29;20562;-81
2023/05/13 01:12:16;;;;;;;8.23;4.40;;;;;;;-141.97;54.97;47611.34;4951546;29;20680;-81
2023/05/13 01:15:03;;;;;;;8.97;4.77;;;;;;;-141.97;55.57;47620.94;4936418;29;20200;-81
2023/05/13 01:17:39;;;;;;;9.50;4.83;;;;;;;-141.97;56.41;47582.50;4954974;29;20192;-82
2023/05/13 01:20:06;;;;;;;6.93;4.63;;;;;;;-141.97;56.45;47692.06;4955293;29;20172;-81
2023/05/13 01:22:31;;;;;;;15.47;7.00;;;;;;;-141.97;55.79;47601.72;4955310;29;20200;-81
2023/05/13 01:24:57;;;;;;;11.80;5.60;;;;;;;-141.97;55.90;47661.31;4955341;29;20724;-81
2023/05/13 01:27:22;;;;;;;8.13;5.30;;;;;;;-141.97;57.11;47634.41;4945552;29;20655;-82
2023/05/13 01:29:48;;;;;;;9.33;5.20;;;;;;;-141.97;58.33;47607.50;4938715;29;20196;-82
2023/05/13 01:32:15;;;;;;;10.47;5.67;;;;;;;-141.97;58.56;47670.91;4935574;29;20213;-81
2023/05/13 01:34:41;;;;;;;8.33;5.73;;;;;;;-141.97;58.96;47642.09;4920557;29;20676;-81
2023/05/13 01:37:07;;;;;;;10.87;5.67;;;;;;;-141.97;58.77;47663.22;4936188;29;20229;-79
2023/05/13 01:39:36;;;;;;;11.43;5.57;;;;;;;-141.97;58.39;47640.16;4935224;29;20264;-82
2023/05/13 01:42:02;;;;;;;10.70;6.03;;;;;;;-141.97;58.21;47626.72;4935467;29;20182;-82
2023/05/13 01:44:27;;;;;;;9.27;6.20;;;;;;;-141.97;58.85;47636.31;4974704;28;20186;-82
2023/05/13 01:46:52;;;;;;;11.53;5.90;;;;;;;-141.97;59.51;47642.09;4976547;28;20254;-82
2023/05/13 01:49:18;;;;;;;13.90;6.50;;;;;;;-141.97;59.67;47613.25;4976655;28;20207;-82
2023/05/13 01:51:43;;;;;;;8.67;5.70;;;;;;;-141.97;59.51;47615.19;4976336;28;20665;-82
2023/05/13 01:54:09;;;;;;;12.00;6.60;;;;;;;-141.97;59.13;47661.31;4976430;28;20204;-82
2023/05/13 01:56:34;;;;;;;13.13;6.37;;;;;;;-141.97;59.25;47642.09;4976054;28;20648;-81
2023/05/13 01:59:00;;;;;;;10.10;6.20;;;;;;;-141.97;59.14;47617.09;4976558;28;20179;-83
2023/05/13 02:01:25;;;;;;;11.67;7.17;;;;;;;-141.97;59.29;47609.41;4976168;28;20179;-80
2023/05/13 02:03:51;;;;;;;12.97;7.17;;;;;;;-141.97;59.87;47682.47;4975580;28;20194;-81
2023/05/13 02:06:16;;;;;;;9.20;6.63;;;;;;;-141.97;60.05;47592.13;4975834;28;20553;-82
2023/05/13 02:08:42;;;;;;;11.53;6.93;;;;;;;-141.97;61.10;47542.16;4975844;28;20221;-80
2023/05/13 02:11:07;;;;;;;11.40;6.87;;;;;;;-141.97;61.05;47647.84;4990732;28;20180;-82
2023/05/13 02:13:33;;;;;;;10.17;6.80;;;;;;;-141.97;61.94;47617.09;4975947;28;20282;-81
2023/05/13 02:15:58;;;;;;;11.53;7.30;;;;;;;-141.97;63.39;47619.03;4976345;28;20232;-81
2023/05/13 02:18:24;;;;;;;12.27;7.10;;;;;;;-141.97;64.75;47553.69;4975303;28;20198;-81
2023/05/13 02:20:49;;;;;;;10.63;7.40;;;;;;;-141.97;67.09;47624.78;4976307;28;20186;-82
2023/05/13 02:23:16;;;;;;;12.87;7.10;;;;;;;-141.97;68.71;47634.41;4970797;28;20172;-81
2023/05/13 02:25:41;;;;;;;10.50;6.53;;;;;;;-141.97;70.27;47649.78;4955614;28;20673;-81
2023/05/13 02:28:07;;;;;;;12.90;6.47;;;;;;;-141.97;71.51;47649.78;4950303;28;20232;-81
2023/05/13 02:30:32;;;;;;;10.03;5.60;;;;;;;-141.97;71.54;47617.09;4959645;28;20173;-80
2023/05/13 02:32:59;;;;;;;12.33;6.77;;;;;;;-141.97;71.19;47620.94;4974322;28;20192;-82
2023/05/13 02:35:28;;;;;;;14.57;7.07;;;;;;;-141.97;69.97;47580.59;4983272;28;20190;-82
2023/05/13 02:37:54;;;;;;;11.13;6.50;;;;;;;-141.97;69.11;47651.69;4976244;28;20175;-82
2023/05/13 02:40:19;;;;;;;13.53;6.13;;;;;;;-141.97;69.09;47680.53;4974967;28;20180;-81
2023/05/13 02:42:44;;;;;;;10.10;5.40;;;;;;;-141.97;69.06;47580.59;4970970;28;20177;-81
2023/05/13 02:45:10;;;;;;;8.07;5.60;;;;;;;-141.97;70.69;47567.13;4956480;28;20171;-81
2023/05/13 02:47:36;;;;;;;8.67;5.60;;;;;;;-141.97;72.61;47657.47;4955718;28;20168;-81
2023/05/13 02:50:04;;;;;;;10.70;6.60;;;;;;;-141.97;74.12;47665.16;4954889;29;20243;-80
2023/05/13 02:52:30;;;;;;;9.37;6.27;;;;;;;-141.97;74.14;47644.00;4960438;28;20259;-82
2023/05/13 02:54:55;;;;;;;9.23;5.60;;;;;;;-141.97;73.59;47561.38;4974750;28;20605;-81
2023/05/13 02:57:21;;;;;;;10.13;5.60;;;;;;;-141.97;73.91;47655.53;4975343;28;20255;-81
2023/05/13 02:59:46;;;;;;;11.13;6.40;;;;;;;-141.97;73.85;47644.00;4973811;28;20164;-79
2023/05/13 03:02:12;;;;;;;9.33;6.43;;;;;;;-141.97;72.54;47663.22;4973920;28;20204;-81
2023/05/13 03:04:37;;;;;;;13.30;6.93;;;;;;;-141.97;72.15;47622.88;4974770;28;20170;-82
2023/05/13 03:07:03;;;;;;;16.83;7.70;;;;;;;-141.97;72.63;47665.16;4990339;28;20600;-81
2023/05/13 03:09:29;;;;;;;20.63;7.77;;;;;;;-141.97;72.01;47718.97;4974666;28;20200;-81
2023/05/13 03:11:55;;;;;;;15.77;8.63;;;;;;;-141.97;71.28;47622.88;4975305;28;20157;-81
2023/05/13 03:14:21;;;;;;;31.00;12.40;;;;;;;-141.97;70.12;47663.22;4974298;28;20204;-81
2023/05/13 03:16:47;;;;;;;28.00;11.80;;;;;;;-141.97;69.26;47649.78;4973989;28;20613;-81
2023/05/13 03:19:12;;;;;;;31.07;13.07;;;;;;;-141.97;68.48;47611.34;4974624;28;20180;-81
2023/05/13 03:21:38;;;;;;;30.10;11.90;;;;;;;-141.97;68.09;47711.28;4973754;28;20199;-81
2023/05/13 03:24:03;;;;;;;23.37;8.87;;;;;;;-141.97;68.53;47626.72;4973831;28;20599;-81
2023/05/13 03:26:29;;;;;;;22.03;8.53;;;;;;;-141.97;68.37;47667.06;4974002;28;20164;-81
2023/05/13 03:28:54;;;;;;;19.63;8.03;;;;;;;-141.97;68.65;47634.41;4963244;28;20302;-81
2023/05/13 03:31:20;;;;;;;18.03;8.37;;;;;;;-141.97;68.42;47665.16;4974372;28;20219;-81
2023/05/13 03:33:45;;;;;;;19.33;8.70;;;;;;;-141.97;68.90;47634.41;4974079;28;20268;-82
2023/05/13 03:36:10;;;;;;;17.13;8.30;;;;;;;-141.97;70.00;47636.31;4974711;28;20175;-81
2023/05/13 03:38:36;;;;;;;15.63;8.47;;;;;;;-141.97;70.37;47686.31;4973571;28;20188;-80
2023/05/13 03:41:01;;;;;;;20.97;7.80;;;;;;;-141.97;70.80;47632.47;4975323;28;20179;-82
2023/05/13 03:43:27;;;;;;;11.43;8.10;;;;;;;-141.97;70.16;47669.00;4974097;28;20225;-81
2023/05/13 03:45:52;;;;;;;15.73;8.77;;;;;;;-141.97;69.94;47661.31;4989577;28;20164;-81
2023/05/13 03:48:17;;;;;;;18.67;8.40;;;;;;;-141.97;69.74;47576.75;4974081;28;20182;-80
2023/05/13 03:50:43;;;;;;;14.90;8.60;;;;;;;-141.97;69.95;47730.50;4974463;28;20164;-80
2023/05/13 03:53:10;;;;;;;16.93;8.40;;;;;;;-141.97;70.12;47678.63;4973116;28;20195;-80
2023/05/13 03:55:35;;;;;;;21.83;8.50;;;;;;;-141.97;69.37;47659.38;4973475;28;20160;-82
2023/05/13 03:58:10;;;;;;;18.23;8.23;;;;;;;-141.97;67.96;47611.34;4973713;28;20643;-82
2023/05/13 04:00:36;;;;;;;17.50;8.57;;;;;;;-141.97;67.24;47669.00;4972510;28;20164;-81
2023/05/13 04:03:01;;;;;;;15.20;8.60;;;;;;;-141.97;68.08;47657.47;4973363;28;20182;-82
2023/05/13 04:05:27;;;;;;;17.10;9.63;;;;;;;-141.97;68.98;47657.47;4973425;28;20211;-82
2023/05/13 04:07:52;;;;;;;27.33;10.60;;;;;;;-141.97;68.13;47674.78;4969710;28;20219;-81
2023/05/13 04:10:17;;;;;;;20.90;9.90;;;;;;;-141.97;66.80;47632.47;4972100;28;20207;-81
2023/05/13 04:12:43;;;;;;;24.10;10.30;;;;;;;-141.97;66.34;47628.63;4973485;28;20186;-81
2023/05/13 04:15:08;;;;;;;19.33;10.20;;;;;;;-141.97;66.05;47605.56;4976047;28;20203;-81
2023/05/13 04:17:34;;;;;;;18.60;9.47;;;;;;;-141.97;65.38;47626.72;4989145;28;20243;-81
2023/05/13 04:19:59;;;;;;;21.13;9.83;;;;;;;-141.97;64.77;47644.00;4987801;28;20172;-81
2023/05/13 04:22:25;;;;;;;17.73;10.03;;;;;;;-141.97;63.74;47674.78;4981694;28;20254;-79
2023/05/13 04:24:55;;;;;;;17.63;9.20;;;;;;;-141.97;63.09;47630.56;4974257;28;20160;-79
2023/05/13 04:27:20;;;;;;;17.50;9.43;;;;;;;-141.97;61.30;47649.78;4974852;28;20614;-79
2023/05/13 04:29:46;;;;;;;14.47;8.40;;;;;;;-141.97;59.54;47657.47;4974302;28;20164;-81
2023/05/13 04:32:14;;;;;;;15.47;9.07;;;;;;;-141.97;58.42;47772.78;4973491;28;20246;-81
2023/05/13 04:34:40;;;;;;;14.37;8.80;;;;;;;-141.97;57.54;47619.03;4972976;28;20200;-79
2023/05/13 04:37:05;;;;;;;14.27;8.40;;;;;;;-141.97;57.03;47649.78;4966717;28;20727;-81
2023/05/13 04:39:31;;;;;;;70.93;35.00;;;;;;;-141.97;55.64;47663.22;4973456;28;20167;-80
2023/05/13 04:41:56;;;;;;;17.57;10.37;;;;;;;-141.97;55.00;47753.56;4973186;28;20211;-81
2023/05/13 04:44:21;;;;;;;17.27;9.53;;;;;;;-141.97;54.85;47530.59;4972331;28;20171;-81
2023/05/13 04:46:47;;;;;;;17.10;9.13;;;;;;;-141.97;54.47;47642.09;4973341;28;20167;-80
2023/05/13 04:49:12;;;;;;;14.77;7.70;;;;;;;-141.97;53.67;47653.63;4973387;28;20164;-80
2023/05/13 04:51:37;;;;;;;13.57;7.37;;;;;;;-141.97;53.64;47653.63;4975101;28;20168;-81
2023/05/13 04:54:03;;;;;;;13.33;7.57;;;;;;;-141.97;52.54;47630.56;4976921;28;20188;-80
2023/05/13 04:56:28;;;;;;;12.93;7.67;;;;;;;-141.97;51.84;47653.63;4977254;28;20200;-83
2023/05/13 04:58:54;;;;;;;14.87;8.53;;;;;;;-141.97;51.47;47636.31;4974789;28;20175;-83
2023/05/13 05:01:19;;;;;;;16.60;8.83;;;;;;;-141.97;51.15;47634.41;4977252;28;20226;-80
2023/05/13 05:03:44;;;;;;;14.67;8.93;;;;;;;-141.97;51.01;47640.16;4975852;28;20191;-82
2023/05/13 05:06:10;;;;;;;17.17;9.47;;;;;;;-141.97;51.04;47772.78;4975837;28;20190;-81
2023/05/13 05:08:38;;;;;;;12.20;7.17;;;;;;;-141.97;51.32;47655.53;4976967;28;20301;-81
2023/05/13 05:11:04;;;;;;;12.10;8.00;;;;;;;-141.97;50.68;47642.09;4977226;28;20172;-81
2023/05/13 05:13:29;;;;;;;11.97;7.00;;;;;;;-141.97;49.71;47670.91;4975580;28;20277;-81
2023/05/13 05:15:55;;;;;;;15.77;8.90;;;;;;;-141.97;49.08;47632.47;4976550;28;20203;-80
2023/05/13 05:18:20;;;;;;;12.00;6.73;;;;;;;-141.97;49.26;47624.78;4975680;28;20719;-80
2023/05/13 05:20:45;;;;;;;10.67;7.30;;;;;;;-141.97;50.78;47669.00;4976744;28;20266;-80
2023/05/13 05:23:11;;;;;;;11.70;7.57;;;;;;;-141.97;51.85;47595.97;4986611;28;20172;-80
2023/05/13 05:25:36;;;;;;;13.13;7.50;;;;;;;-141.97;51.91;47588.28;4999073;28;20163;-81
2023/05/13 05:28:03;;;;;;;12.63;6.90;;;;;;;-141.97;51.94;47607.50;4976943;28;20172;-81
2023/05/13 05:30:38;;;;;;;14.13;7.27;;;;;;;-141.97;52.76;47603.66;4977519;28;20583;-81
2023/05/13 05:33:03;;;;;;;14.67;7.00;;;;;;;-141.97;53.39;47628.63;4975569;28;20219;-80
2023/05/13 05:35:29;;;;;;;11.13;7.33;;;;;;;-141.97;52.84;47567.13;4975888;28;20173;-80
2023/05/13 05:37:55;;;;;;;13.63;6.90;;;;;;;-141.97;51.57;47624.78;4976170;28;20274;-80
2023/05/13 05:40:21;;;;;;;14.00;6.70;;;;;;;-141.97;52.17;47613.25;4975801;28;20179;-80
2023/05/13 05:42:46;;;;;;;12.30;6.93;;;;;;;-141.97;52.45;47642.09;4974740;28;20204;-80
2023/05/13 05:45:12;;;;;;;11.10;6.67;;;;;;;-141.97;52.22;47634.41;4975773;28;20200;-79
2023/05/13 05:47:37;;;;;;;12.57;7.23;;;;;;;-141.97;52.05;47655.53;4970024;28;20231;-79
2023/05/13 05:50:03;;;;;;;11.70;7.80;;;;;;;-141.97;51.57;47649.78;4975156;28;20618;-79
2023/05/13 05:52:28;;;;;;;13.23;7.20;;;;;;;-141.97;51.27;47619.03;4975150;28;20259;-81
2023/05/13 05:54:54;;;;;;;12.77;7.17;;;;;;;-141.97;51.76;47653.63;4975141;28;20219;-80
2023/05/13 05:57:19;;;;;;;13.97;7.67;;;;;;;-141.97;50.70;47632.47;4975035;28;20274;-80
2023/05/13 05:59:45;;;;;;;12.70;7.70;;;;;;;-141.97;51.24;47761.25;4976183;28;20172;-81
2023/05/13 06:02:10;;;;;;;13.13;7.07;;;;;;;-141.97;50.43;47765.09;4974657;28;20191;-81
2023/05/13 06:04:35;;;;;;;15.03;7.97;;;;;;;-141.97;50.75;47647.84;4975570;28;20259;-79
2023/05/13 06:07:01;;;;;;;14.23;7.53;;;;;;;-141.97;51.10;47634.41;4975189;28;20663;-80
2023/05/13 06:09:26;;;;;;;13.33;8.47;;;;;;;-141.97;51.39;47622.88;4975555;28;20171;-80
2023/05/13 06:11:51;;;;;;;16.00;9.67;;;;;;;-141.97;50.53;47595.97;4975863;28;20179;-79
2023/05/13 06:14:17;;;;;;;13.67;7.10;;;;;;;-141.97;49.89;47638.25;4976229;28;20202;-80
2023/05/13 06:16:42;;;;;;;12.00;7.07;;;;;;;-141.97;49.33;47626.72;4974335;28;20557;-79
2023/05/13 06:19:08;;;;;;;14.83;7.80;;;;;;;-141.97;49.06;47615.19;4975134;28;20187;-80
2023/05/13 06:21:33;;;;;;;10.77;7.30;;;;;;;-141.97;48.93;47607.50;4974987;28;20167;-80
2023/05/13 06:23:59;;;;;;;13.00;7.40;;;;;;;-141.97;48.64;47592.13;4975429;28;20203;-80
2023/05/13 06:26:25;;;;;;;14.87;7.03;;;;;;;-141.97;47.35;47599.81;4975206;28;20214;-80
2023/05/13 06:28:50;;;;;;;8.90;6.57;;;;;;;-141.97;46.40;47753.56;4974759;28;20200;-81
2023/05/13 06:31:16;;;;;;;12.33;7.00;;;;;;;-141.97;45.64;47759.34;4975785;28;20282;-80
2023/05/13 06:33:41;;;;;;;15.70;7.33;;;;;;;-141.97;45.07;47632.47;4973412;28;20192;-79
2023/05/13 06:36:08;;;;;;;12.87;7.10;;;;;;;-141.97;43.77;47561.38;4975093;28;20239;-80
2023/05/13 06:38:34;;;;;;;13.37;6.23;;;;;;;-141.97;42.80;47542.16;4974888;28;20234;-81
2023/05/13 06:41:00;;;;;;;12.43;7.23;;;;;;;-141.97;42.59;47574.81;4975619;28;20574;-81
2023/05/13 06:43:28;;;;;;;10.27;6.47;;;;;;;-141.97;42.80;47680.53;4974252;28;20246;-79
2023/05/13 06:45:53;;;;;;;10.17;6.20;;;;;;;-141.97;42.42;47603.66;4974454;28;20602;-82
2023/05/13 06:48:19;;;;;;;12.27;6.67;;;;;;;-141.97;42.54;47576.75;4974470;28;20222;-80
2023/05/13 06:50:44;;;;;;;14.33;7.97;;;;;;;-141.97;42.20;47549.84;4974488;28;20255;-79
2023/05/13 06:53:10;;;;;;;12.00;8.53;;;;;;;-141.97;42.46;47588.28;4977220;28;20226;-80
2023/05/13 06:55:40;;;;;;;16.40;8.93;;;;;;;-141.97;42.05;47594.03;4975081;28;20250;-79
2023/05/13 06:58:07;;;;;;;14.43;9.10;;;;;;;-141.97;42.09;47607.50;4974309;28;20521;-79
2023/05/13 07:00:36;;;;;;;15.23;8.83;;;;;;;-141.97;42.20;47634.41;4970847;28;20259;-81
2023/05/13 07:03:02;;;;;;;18.87;10.40;;;;;;;-141.97;43.27;47565.22;4974840;28;20176;-80
2023/05/13 07:05:28;;;;;;;16.03;10.43;;;;;;;-141.97;45.16;47592.13;4974554;28;20163;-80
2023/05/13 07:07:53;;;;;;;14.00;8.90;;;;;;;-141.97;44.45;47613.25;4974332;28;20238;-80
2023/05/13 07:10:18;;;;;;;14.30;9.20;;;;;;;-141.97;44.47;47592.13;4974843;28;20200;-81
2023/05/13 07:12:44;;;;;;;16.80;9.90;;;;;;;-141.97;43.29;47546.00;4975151;28;20168;-81
2023/05/13 07:15:10;;;;;;;16.30;10.67;;;;;;;-141.97;42.98;47607.50;4973578;28;20207;-82
2023/05/13 07:17:35;;;;;;;17.37;11.23;;;;;;;-141.97;43.07;47595.97;4982505;28;20168;-80
2023/05/13 07:20:00;;;;;;;17.03;10.57;;;;;;;-141.97;43.39;47640.16;4981163;28;20626;-82
2023/05/13 07:22:26;;;;;;;14.60;9.67;;;;;;;-141.97;42.77;47649.78;4975981;28;20176;-81
2023/05/13 07:24:52;;;;;;;20.07;10.47;;;;;;;-141.97;42.78;47611.34;4975421;28;20169;-82
2023/05/13 07:27:18;;;;;;;13.70;8.97;;;;;;;-141.97;41.29;47584.44;4975193;28;20176;-82
2023/05/13 07:29:43;;;;;;;13.83;8.43;;;;;;;-141.97;39.25;47438.34;4975154;28;20538;-82
2023/05/13 07:32:08;;;;;;;15.23;9.00;;;;;;;-141.97;39.56;47544.06;4975147;28;20171;-82
2023/05/13 07:34:34;;;;;;;16.50;9.70;;;;;;;-141.97;39.55;47590.19;4974306;28;20271;-82
2023/05/13 07:37:01;;;;;;;16.07;9.47;;;;;;;-141.97;39.87;47605.56;4956797;28;20665;-82
2023/05/13 07:39:26;;;;;;;13.63;9.07;;;;;;;-141.97;39.45;47713.22;4954867;29;20240;-79
2023/05/13 07:41:52;;;;;;;12.77;9.30;;;;;;;-141.97;39.82;47724.75;4954860;28;20598;-82
2023/05/13 07:44:18;;;;;;;12.87;8.50;;;;;;;-141.97;39.76;47607.50;4960796;28;20607;-82
2023/05/13 07:46:43;;;;;;;12.50;8.97;;;;;;;-141.97;40.80;47547.91;4955433;28;20164;-81
2023/05/13 07:49:09;;;;;;;13.30;7.90;;;;;;;-141.97;40.85;47576.75;4954666;28;20175;-82
2023/05/13 07:51:35;;;;;;;15.23;9.70;;;;;;;-141.97;40.43;47607.50;4953538;29;20172;-82
2023/05/13 07:54:00;;;;;;;13.90;8.87;;;;;;;-141.97;40.19;47707.44;4964601;28;20291;-83
2023/05/13 07:56:26;;;;;;;12.30;8.50;;;;;;;-141.97;39.94;47742.03;4974647;28;20156;-82
2023/05/13 07:58:51;;;;;;;13.30;8.27;;;;;;;-141.97;39.04;47561.38;4973754;28;20179;-82
2023/05/13 08:01:17;;;;;;;11.57;7.73;;;;;;;-141.97;38.90;47592.13;4969252;28;20243;-81
2023/05/13 08:03:42;;;;;;;11.33;7.90;;;;;;;-141.97;38.58;47611.34;4974587;28;20552;-81
2023/05/13 08:06:07;;;;;;;11.97;7.80;;;;;;;-141.97;39.36;47465.25;4974691;28;20156;-81
2023/05/13 08:08:33;;;;;;;11.60;7.70;;;;;;;-141.97;39.12;47749.72;4974280;28;20220;-82
2023/05/13 08:10:58;;;;;;;13.23;7.10;;;;;;;-141.97;38.94;47572.91;4983606;28;20166;-82
2023/05/13 08:13:24;;;;;;;10.70;7.43;;;;;;;-141.97;38.54;47603.66;4985205;28;20168;-80
2023/05/13 08:15:51;;;;;;;10.40;6.00;;;;;;;-141.97;38.31;47599.81;4975536;28;20191;-80
2023/05/13 08:18:16;;;;;;;10.43;7.00;;;;;;;-141.97;38.58;47542.16;4978093;28;20665;-82
2023/05/13 08:20:42;;;;;;;10.17;6.87;;;;;;;-141.97;38.12;47519.06;4989875;28;20160;-82
2023/05/13 08:23:07;;;;;;;13.67;6.50;;;;;;;-141.97;37.83;47570.97;4978642;28;20168;-81
2023/05/13 08:25:33;;;;;;;9.07;6.20;;;;;;;-141.97;38.52;47551.75;4988762;28;20171;-82
2023/05/13 08:27:58;;;;;;;8.80;5.93;;;;;;;-141.97;38.65;47567.13;4974458;28;20661;-82
2023/05/13 08:30:23;;;;;;;12.20;6.27;;;;;;;-141.97;38.44;47547.91;4989816;28;20164;-83
2023/05/13 08:32:49;;;;;;;11.30;6.20;;;;;;;-141.97;38.02;47542.16;4973389;28;20200;-82
2023/05/13 08:35:14;;;;;;;9.23;6.17;;;;;;;-141.97;38.52;47586.34;4974188;28;20278;-82
2023/05/13 08:37:40;;;;;;;9.97;6.57;;;;;;;-141.97;38.33;47592.13;4984607;28;20216;-82
2023/05/13 08:40:06;;;;;;;11.37;6.50;;;;;;;-141.97;39.12;47565.22;4974838;28;20624;-82
2023/05/13 08:42:32;;;;;;;11.53;6.33;;;;;;;-141.97;38.63;47784.34;4974256;28;20161;-82
2023/05/13 08:44:59;;;;;;;10.20;6.20;;;;;;;-141.97;38.53;47534.44;4974122;28;20171;-82
2023/05/13 08:47:39;;;;;;;8.30;5.80;;;;;;;-141.97;37.73;47588.28;4972945;28;20582;-82
2023/05/13 08:50:06;;;;;;;9.07;5.93;;;;;;;-141.97;36.71;47584.44;4974740;28;20156;-82
2023/05/13 08:52:32;;;;;;;24.67;15.43;;;;;;;-141.97;36.53;47511.38;4974422;28;20715;-83
2023/05/13 08:55:00;;;;;;;11.07;7.00;;;;;;;-141.97;36.54;47490.25;4972627;28;20204;-82
2023/05/13 08:57:26;;;;;;;7.20;5.80;;;;;;;-141.97;36.23;47690.16;4972950;28;20192;-82
2023/05/13 08:59:51;;;;;;;6.60;4.70;;;;;;;-141.97;35.14;47530.59;4963845;28;20239;-81
2023/05/13 09:02:17;;;;;;;8.33;5.00;;;;;;;-141.97;35.23;47542.16;4974323;28;20222;-81
2023/05/13 09:04:45;;;;;;;7.47;5.10;;;;;;;-141.97;34.55;47426.81;4973453;28;20179;-81
2023/05/13 09:07:11;;;;;;;7.30;4.67;;;;;;;-141.97;35.08;47534.44;4972974;28;20553;-81
2023/05/13 09:09:36;;;;;;;7.90;5.43;;;;;;;-141.97;35.27;47728.59;4973582;28;20176;-82
2023/05/13 09:12:02;;;;;;;7.60;5.30;;;;;;;-141.97;35.07;47763.19;4973776;28;20183;-82
2023/05/13 09:14:31;;;;;;;8.37;4.30;;;;;;;-141.97;34.21;47492.16;4973737;28;20253;-82
2023/05/13 09:16:57;;;;;;;5.33;4.10;;;;;;;-141.97;34.66;47578.66;4973234;28;20160;-82
2023/05/13 09:19:23;;;;;;;6.93;4.00;;;;;;;-141.97;34.24;47782.41;4973253;28;20176;-81
2023/05/13 09:21:49;;;;;;;5.40;4.20;;;;;;;-141.97;34.25;47469.09;4973909;28;20175;-82
2023/05/13 09:24:20;;;;;;;5.47;3.53;;;;;;;-141.97;33.52;47472.94;4972900;28;20175;-82
2023/05/13 09:26:46;;;;;;;6.20;4.03;;;;;;;-141.97;33.98;47561.38;4971265;28;20188;-82
2023/05/13 09:29:22;;;;;;;4.83;3.43;;;;;;;-141.97;34.16;47705.53;4973602;28;20184;-82
2023/05/13 09:31:54;;;;;;;6.77;3.90;;;;;;;-141.97;34.08;47532.53;4971234;28;20529;-82
2023/05/13 09:34:29;;;;;;;5.83;3.80;;;;;;;-141.97;33.64;47574.81;4973170;28;20252;-82
2023/05/13 09:37:06;;;;;;;6.80;4.50;;;;;;;-141.97;34.02;47592.13;4974352;28;20166;-83
2023/05/13 09:39:40;;;;;;;7.10;3.83;;;;;;;-141.97;33.41;47505.63;4976885;28;20167;-82
2023/05/13 09:42:17;;;;;;;6.50;4.27;;;;;;;-141.97;33.89;47588.28;4992457;28;20176;-83
2023/05/13 09:44:46;;;;;;;7.57;4.30;;;;;;;-141.97;34.14;47582.50;4976659;28;20171;-81
2023/05/13 09:47:13;;;;;;;8.40;3.80;;;;;;;-141.97;33.60;47563.28;4974825;28;20191;-84
2023/05/13 09:49:40;;;;;;;5.80;4.47;;;;;;;-141.97;33.64;47553.69;4977851;28;20246;-83
2023/05/13 09:52:10;;;;;;;5.63;3.90;;;;;;;-141.97;33.75;47515.22;4977165;28;20187;-82
2023/05/13 09:54:36;;;;;;;6.20;4.10;;;;;;;-141.97;33.26;47472.94;4976497;28;20278;-82
2023/05/13 09:57:02;;;;;;;5.53;3.90;;;;;;;-141.97;33.47;47569.06;4977501;28;20176;-84
2023/05/13 09:59:31;;;;;;;7.47;4.10;;;;;;;-141.97;33.78;47553.69;4975695;28;21150;-85
2023/05/13 10:01:59;;;;;;;6.30;3.67;;;;;;;-141.97;33.68;47551.75;4978249;28;20176;-84
2023/05/13 10:04:25;;;;;;;5.87;4.10;;;;;;;-141.97;34.04;47567.13;4981064;28;20171;-84
2023/05/13 10:06:51;;;;;;;6.63;4.30;;;;;;;-141.97;34.35;47503.69;4977805;28;20172;-82
2023/05/13 10:09:17;;;;;;;6.70;4.10;;;;;;;-141.97;34.26;47574.81;4984958;28;20223;-83
2023/05/13 10:11:46;;;;;;;5.10;4.23;;;;;;;-141.97;33.91;47553.69;4996831;28;20197;-85
2023/05/13 10:14:12;;;;;;;6.33;4.60;;;;;;;-141.97;34.02;47707.44;4977610;28;20573;-83
2023/05/13 10:16:37;;;;;;;5.83;4.20;;;;;;;-141.97;33.70;47513.31;4976193;28;20180;-83
2023/05/13 10:19:05;;;;;;;5.23;4.10;;;;;;;-141.97;33.62;47503.69;4977849;28;20168;-82
2023/05/13 10:21:31;;;;;;;5.50;4.30;;;;;;;-141.97;33.19;47730.50;4977001;28;20170;-83
2023/05/13 10:23:57;;;;;;;7.07;4.00;;;;;;;-141.97;33.20;47517.16;4982674;28;20183;-83
2023/05/13 10:26:24;;;;;;;6.73;4.17;;;;;;;-141.97;32.96;47555.59;4987700;28;20183;-86
2023/05/13 10:28:49;;;;;;;6.67;4.17;;;;;;;-141.97;33.58;47546.00;4986618;28;20183;-84
2023/05/13 10:31:17;;;;;;;6.40;4.77;;;;;;;-141.97;33.19;47567.13;4985729;28;20259;-84
2023/05/13 10:33:44;;;;;;;6.97;4.00;;;;;;;-141.97;33.18;47488.31;4986990;28;20200;-83
2023/05/13 10:36:22;;;;;;;4.83;4.10;;;;;;;-141.97;34.08;47544.06;4985473;28;20207;-83
2023/05/13 10:39:32;;;;;;;6.83;3.90;;;;;;;-141.97;33.09;47551.75;4988179;28;20178;-84
2023/05/13 10:42:24;;;;;;;11.67;3.80;;;;;;;-141.97;33.11;47578.66;4923100;29;20193;-83
2023/05/13 10:44:54;;;;;;;8.20;3.80;;;;;;;-141.97;33.37;47513.31;4945346;29;20189;-84
2023/05/13 10:47:19;;;;;;;9.23;3.70;;;;;;;-141.97;32.91;47715.13;4931601;29;20182;-83
2023/05/13 10:49:52;;;;;;;4.80;3.70;;;;;;;-141.97;33.28;47576.75;4928468;29;20174;-83
2023/05/13 10:52:18;;;;;;;8.60;4.70;;;;;;;-141.97;33.45;47507.53;4938308;29;20197;-83
2023/05/13 10:54:59;;;;;;;6.20;3.90;;;;;;;-141.97;33.15;47555.59;4936680;29;20693;-83
2023/05/13 10:57:29;;;;;;;6.53;4.07;;;;;;;-141.97;33.11;47569.06;4936699;29;20272;-83
2023/05/13 11:00:17;;;;;;;6.10;3.80;;;;;;;-141.97;33.08;47549.84;4936228;29;20657;-83
2023/05/13 11:02:43;;;;;;;8.30;3.97;;;;;;;-141.97;33.95;47561.38;4935500;29;20981;-83
2023/05/13 11:05:08;;;;;;;6.47;4.00;;;;;;;-141.97;33.97;47699.75;4919258;29;20359;-84
2023/05/13 11:07:40;;;;;;;6.33;4.20;;;;;;;-141.97;33.65;47476.78;4929932;29;20305;-84
2023/05/13 11:10:29;;;;;;;6.13;3.70;;;;;;;-141.97;33.59;47584.44;4918110;29;20230;-83